createdAt,value
2023-06-04T00:02:13.036Z,9.68
2023-06-04T00:04:40.213Z,8.57
2023-06-04T00:07:07.682Z,9.57
2023-06-04T00:09:34.438Z,9.30
2023-06-04T00:12:01.477Z,6.53
2023-06-04T00:14:28.486Z,6.38
2023-06-04T00:16:55.389Z,6.57
2023-06-04T00:19:22.398Z,6.28
2023-06-04T00:21:49.428Z,5.47
2023-06-04T00:24:16.908Z,5.22
2023-06-04T00:26:43.935Z,4.97
2023-06-04T00:29:11.057Z,4.50
2023-06-04T00:31:38.070Z,4.68
2023-06-04T00:34:06.309Z,4.55
2023-06-04T00:36:33.282Z,3.97
2023-06-04T00:39:00.388Z,4.30
2023-06-04T00:41:27.565Z,3.97
2023-06-04T00:43:57.545Z,4.50
2023-06-04T00:46:26.779Z,4.88
2023-06-04T00:48:54.497Z,5.38
2023-06-04T00:51:22.489Z,5.93
2023-06-04T00:53:51.472Z,5.28
2023-06-04T00:56:19.116Z,5.32
2023-06-04T00:58:47.448Z,5.97
2023-06-04T01:01:41.893Z,5.85
2023-06-04T01:04:17.916Z,5.78
2023-06-04T01:06:51.549Z,5.10
2023-06-04T01:09:20.935Z,4.80
2023-06-04T01:11:47.762Z,4.97
2023-06-04T01:14:19.597Z,5.07
2023-06-04T01:17:06.238Z,4.78
2023-06-04T01:20:12.968Z,4.30
2023-06-04T01:22:44.575Z,4.22
2023-06-04T01:25:20.762Z,4.10
2023-06-04T01:27:53.680Z,4.15
2023-06-04T01:30:26.536Z,3.83
2023-06-04T01:32:57.578Z,3.42
2023-06-04T01:35:27.408Z,4.00
2023-06-04T01:37:56.290Z,3.92
2023-06-04T01:40:23.750Z,3.83
2023-06-04T01:42:50.670Z,3.78
2023-06-04T01:45:18.617Z,3.75
2023-06-04T01:47:45.649Z,3.78
2023-06-04T01:50:12.670Z,3.25
2023-06-04T01:52:41.056Z,3.60
2023-06-04T01:55:10.599Z,3.15
2023-06-04T01:57:37.886Z,3.80
2023-06-04T02:00:09.439Z,3.78
2023-06-04T02:02:46.918Z,4.53
2023-06-04T02:05:15.889Z,3.30
2023-06-04T02:07:46.239Z,2.92
2023-06-04T02:10:15.528Z,3.17
2023-06-04T02:12:55.605Z,2.70
2023-06-04T02:15:24.219Z,3.10
2023-06-04T02:17:56.602Z,2.90
2023-06-04T02:20:23.723Z,2.88
2023-06-04T02:22:50.608Z,3.35
2023-06-04T02:25:17.526Z,3.72
2023-06-04T02:27:44.523Z,3.20
2023-06-04T02:30:11.772Z,3.15
2023-06-04T02:32:38.621Z,3.08
2023-06-04T02:35:06.132Z,3.20
2023-06-04T02:37:33.074Z,3.22
2023-06-04T02:40:00.321Z,3.15
2023-06-04T02:42:27.448Z,3.85
2023-06-04T02:44:54.386Z,2.70
2023-06-04T02:47:21.454Z,2.83
2023-06-04T02:49:48.259Z,2.67
2023-06-04T02:52:15.175Z,2.72
2023-06-04T02:54:42.156Z,2.67
2023-06-04T02:57:10.373Z,2.80
2023-06-04T02:59:37.640Z,2.63
2023-06-04T03:02:06.485Z,2.72
2023-06-04T03:04:35.432Z,2.78
2023-06-04T03:07:05.486Z,2.55
2023-06-04T03:09:32.774Z,3.00
2023-06-04T03:12:03.010Z,2.38
2023-06-04T03:14:33.690Z,2.63
2023-06-04T03:17:08.597Z,2.80
2023-06-04T03:19:39.960Z,2.53
2023-06-04T03:22:08.030Z,2.65
2023-06-04T03:24:37.323Z,2.40
2023-06-04T03:27:05.270Z,2.45
2023-06-04T03:29:34.053Z,2.85
2023-06-04T03:32:04.109Z,2.53
2023-06-04T03:34:35.622Z,2.47
2023-06-04T03:37:03.965Z,2.78
2023-06-04T03:39:31.531Z,2.10
2023-06-04T03:42:00.266Z,2.08
2023-06-04T03:44:27.922Z,3.17
2023-06-04T03:46:55.053Z,1.98
2023-06-04T03:49:23.029Z,2.53
2023-06-04T03:51:51.008Z,2.20
2023-06-04T03:54:19.544Z,1.92
2023-06-04T03:56:48.808Z,2.28
2023-06-04T03:59:15.912Z,2.70
2023-06-04T04:01:44.222Z,2.10
2023-06-04T04:04:11.482Z,2.10
2023-06-04T04:06:38.484Z,2.15
2023-06-04T04:09:07.975Z,1.98
2023-06-04T04:11:37.471Z,2.10
2023-06-04T04:14:05.052Z,2.38
2023-06-04T04:16:32.207Z,1.80
2023-06-04T04:18:59.452Z,2.22
2023-06-04T04:21:27.455Z,2.05
2023-06-04T04:23:54.440Z,2.30
2023-06-04T04:26:21.629Z,1.90
2023-06-04T04:28:53.618Z,2.28
2023-06-04T04:31:23.566Z,2.00
2023-06-04T04:33:52.257Z,1.90
2023-06-04T04:36:21.053Z,2.22
2023-06-04T04:38:56.372Z,2.28
2023-06-04T04:41:30.204Z,2.55
2023-06-04T04:44:05.872Z,1.88
2023-06-04T04:46:33.547Z,1.80
2023-06-04T04:49:00.398Z,1.98
2023-06-04T04:51:27.782Z,1.83
2023-06-04T04:53:55.945Z,1.90
2023-06-04T04:56:24.569Z,2.05
2023-06-04T04:58:52.632Z,1.80
2023-06-04T05:01:20.893Z,1.77
2023-06-04T05:03:48.310Z,1.90
2023-06-04T05:06:16.782Z,1.98
2023-06-04T05:08:44.634Z,1.80
2023-06-04T05:11:13.100Z,1.73
2023-06-04T05:13:44.503Z,2.10
2023-06-04T05:16:15.288Z,2.00
2023-06-04T05:18:46.042Z,2.00
2023-06-04T05:21:18.172Z,2.65
2023-06-04T05:23:51.509Z,1.48
2023-06-04T05:26:24.405Z,2.00
2023-06-04T05:28:53.088Z,1.73
2023-06-04T05:31:20.084Z,2.08
2023-06-04T05:33:49.041Z,1.80
2023-06-04T05:36:19.079Z,2.08
2023-06-04T05:38:58.350Z,1.98
2023-06-04T05:41:30.170Z,1.98
2023-06-04T05:43:59.184Z,1.90
2023-06-04T05:46:26.548Z,1.80
2023-06-04T05:48:55.177Z,2.28
2023-06-04T05:51:23.543Z,1.80
2023-06-04T05:53:51.001Z,2.05
2023-06-04T05:56:18.767Z,2.45
2023-06-04T05:58:51.995Z,1.85
2023-06-04T06:01:18.924Z,1.65
2023-06-04T06:03:46.213Z,2.65
2023-06-04T06:06:13.852Z,1.80
2023-06-04T06:08:41.093Z,2.00
2023-06-04T06:11:10.883Z,1.92
2023-06-04T06:13:38.574Z,2.03
2023-06-04T06:16:06.209Z,1.80
2023-06-04T06:18:34.121Z,1.70
2023-06-04T06:21:01.351Z,2.13
2023-06-04T06:23:29.080Z,1.92
2023-06-04T06:25:56.745Z,1.90
2023-06-04T06:28:27.392Z,1.92
2023-06-04T06:30:56.196Z,2.03
2023-06-04T06:33:24.854Z,2.15
2023-06-04T06:35:51.822Z,1.80
2023-06-04T06:38:21.332Z,1.80
2023-06-04T06:40:48.733Z,1.70
2023-06-04T06:43:16.599Z,2.10
2023-06-04T06:45:43.540Z,2.10
2023-06-04T06:48:10.491Z,2.08
2023-06-04T06:50:37.453Z,2.40
2023-06-04T06:53:04.820Z,2.53
2023-06-04T06:55:32.039Z,2.00
2023-06-04T06:57:59.369Z,2.55
2023-06-04T07:00:29.262Z,1.90
2023-06-04T07:02:57.486Z,2.08
2023-06-04T07:05:24.475Z,2.38
2023-06-04T07:07:51.278Z,1.90
2023-06-04T07:10:18.261Z,1.98
2023-06-04T07:12:45.144Z,2.78
2023-06-04T07:15:12.169Z,2.10
2023-06-04T07:17:39.125Z,2.13
2023-06-04T07:20:08.013Z,2.00
2023-06-04T07:22:35.359Z,2.17
2023-06-04T07:25:02.410Z,1.60
2023-06-04T07:27:31.153Z,2.45
2023-06-04T07:29:57.887Z,2.55
2023-06-04T07:32:24.885Z,2.38
2023-06-04T07:34:51.827Z,2.20
2023-06-04T07:37:18.980Z,2.53
2023-06-04T07:39:46.041Z,2.88
2023-06-04T07:42:12.829Z,2.40
2023-06-04T07:44:39.715Z,2.25
2023-06-04T07:47:06.755Z,2.10
2023-06-04T07:49:33.638Z,2.30
2023-06-04T07:52:01.505Z,1.83
2023-06-04T07:54:28.443Z,2.55
2023-06-04T07:56:57.315Z,2.30
2023-06-04T07:59:24.855Z,2.60
2023-06-04T08:01:52.884Z,2.38
2023-06-04T08:04:21.744Z,2.40
2023-06-04T08:06:48.986Z,2.50
2023-06-04T08:09:16.428Z,2.20
2023-06-04T08:11:46.748Z,2.38
2023-06-04T08:14:14.247Z,2.35
2023-06-04T08:16:42.075Z,2.30
2023-06-04T08:19:31.501Z,2.47
2023-06-04T08:21:59.245Z,2.70
2023-06-04T08:24:39.349Z,2.35
2023-06-04T08:27:26.090Z,2.38
2023-06-04T08:29:55.144Z,2.67
2023-06-04T08:32:42.272Z,2.55
2023-06-04T08:35:18.324Z,2.75
2023-06-04T08:37:45.197Z,2.33
2023-06-04T08:40:12.993Z,2.28
2023-06-04T08:42:46.011Z,2.25
2023-06-04T08:47:49.067Z,2.55
2023-06-04T08:50:19.896Z,2.20
2023-06-04T08:52:47.507Z,3.25
2023-06-04T08:55:15.500Z,2.40
2023-06-04T08:57:44.759Z,2.33
2023-06-04T09:00:12.052Z,2.85
2023-06-04T09:02:40.441Z,2.80
2023-06-04T09:05:11.758Z,2.20
2023-06-04T09:07:41.999Z,2.40
2023-06-04T09:10:15.518Z,2.58
2023-06-04T09:12:49.338Z,2.58
2023-06-04T09:15:16.254Z,2.53
2023-06-04T09:17:43.166Z,3.30
2023-06-04T09:20:19.648Z,2.42
2023-06-04T09:22:46.588Z,2.53
2023-06-04T09:25:22.786Z,2.60
2023-06-04T09:27:50.364Z,2.80
2023-06-04T09:30:17.465Z,2.63
2023-06-04T09:32:44.578Z,2.75
2023-06-04T09:35:19.340Z,2.42
2023-06-04T09:37:58.738Z,2.78
2023-06-04T09:40:41.364Z,2.47
2023-06-04T09:43:09.500Z,2.78
2023-06-04T09:45:37.211Z,2.75
2023-06-04T09:48:10.550Z,2.50
2023-06-04T09:50:43.132Z,2.95
2023-06-04T09:53:18.965Z,2.60
2023-06-04T09:55:45.870Z,2.20
2023-06-04T09:58:15.044Z,2.40
2023-06-04T10:00:42.927Z,2.67
2023-06-04T10:03:14.298Z,2.50
2023-06-04T10:05:41.446Z,2.70
2023-06-04T10:08:11.628Z,2.63
2023-06-04T10:10:41.975Z,2.65
2023-06-04T10:13:22.280Z,3.05
2023-06-04T10:15:49.630Z,3.00
2023-06-04T10:18:17.628Z,2.35
2023-06-04T10:20:44.790Z,2.22
2023-06-04T10:23:13.772Z,2.35
2023-06-04T10:25:40.802Z,2.42
2023-06-04T10:28:07.592Z,3.13
2023-06-04T10:30:34.661Z,2.63
2023-06-04T10:33:01.844Z,2.38
2023-06-04T10:35:36.093Z,2.58
2023-06-04T10:38:11.597Z,3.45
2023-06-04T10:40:39.346Z,2.70
2023-06-04T10:43:14.326Z,2.97
2023-06-04T10:45:42.043Z,3.05
2023-06-04T10:48:10.800Z,2.80
2023-06-04T10:50:51.465Z,3.00
2023-06-04T10:53:20.601Z,3.00
2023-06-04T10:55:48.976Z,2.90
2023-06-04T10:58:16.650Z,2.60
2023-06-04T11:00:51.027Z,2.63
2023-06-04T11:03:18.952Z,2.88
2023-06-04T11:05:47.827Z,2.92
2023-06-04T11:08:16.348Z,2.85
2023-06-04T11:10:46.232Z,3.30
2023-06-04T11:13:13.748Z,2.75
2023-06-04T11:15:45.695Z,3.00
2023-06-04T11:18:17.779Z,2.75
2023-06-04T11:20:47.438Z,2.67
2023-06-04T11:23:18.048Z,3.50
2023-06-04T11:25:46.509Z,3.45
2023-06-04T11:28:20.052Z,2.60
2023-06-04T11:31:07.586Z,2.88
2023-06-04T11:33:45.545Z,4.10
2023-06-04T11:36:26.282Z,3.20
2023-06-04T11:39:04.314Z,3.22
2023-06-04T11:41:32.422Z,2.92
2023-06-04T11:44:02.324Z,3.45
2023-06-04T11:46:29.288Z,3.05
2023-06-04T11:48:56.695Z,2.63
2023-06-04T11:51:24.369Z,2.90
2023-06-04T11:53:51.478Z,2.97
2023-06-04T11:56:20.338Z,3.20
2023-06-04T11:58:47.513Z,3.08
2023-06-04T12:01:15.001Z,3.42
2023-06-04T12:03:43.192Z,2.75
2023-06-04T12:06:18.534Z,3.10
2023-06-04T12:08:58.497Z,3.20
2023-06-04T12:11:32.408Z,3.67
2023-06-04T12:14:07.166Z,2.67
2023-06-04T12:16:34.899Z,2.90
2023-06-04T12:19:12.319Z,3.28
2023-06-04T12:21:40.685Z,3.10
2023-06-04T12:24:11.811Z,2.75
2023-06-04T12:26:41.926Z,3.38
2023-06-04T12:29:17.277Z,2.90
2023-06-04T12:31:46.774Z,3.17
2023-06-04T12:34:15.648Z,3.17
2023-06-04T12:36:44.031Z,3.00
2023-06-04T12:39:12.185Z,2.92
2023-06-04T12:41:39.195Z,2.85
2023-06-04T12:44:06.262Z,3.03
2023-06-04T12:46:33.235Z,3.05
2023-06-04T12:49:00.122Z,2.78
2023-06-04T12:51:27.571Z,2.88
2023-06-04T12:53:54.471Z,3.28
2023-06-04T12:56:21.578Z,2.90
2023-06-04T12:58:48.622Z,3.45
2023-06-04T13:01:16.618Z,2.95
2023-06-04T13:03:43.983Z,3.22
2023-06-04T13:06:11.156Z,3.13
2023-06-04T13:08:38.441Z,4.18
2023-06-04T13:11:06.707Z,3.50
2023-06-04T13:13:34.105Z,2.72
2023-06-04T13:16:01.247Z,3.00
2023-06-04T13:18:28.305Z,3.45
2023-06-04T13:20:55.339Z,3.10
2023-06-04T13:23:24.177Z,2.92
2023-06-04T13:25:54.034Z,2.88
2023-06-04T13:28:21.417Z,2.80
2023-06-04T13:30:49.245Z,3.63
2023-06-04T13:33:16.223Z,3.05
2023-06-04T13:35:43.603Z,3.33
2023-06-04T13:38:10.433Z,2.83
2023-06-04T13:40:37.617Z,3.13
2023-06-04T13:43:05.740Z,3.20
2023-06-04T13:45:33.217Z,2.80
2023-06-04T13:48:03.546Z,2.83
2023-06-04T13:50:30.905Z,3.05
2023-06-04T13:52:59.251Z,2.88
2023-06-04T13:55:26.203Z,2.95
2023-06-04T13:57:54.660Z,3.90
2023-06-04T14:00:22.187Z,3.08
2023-06-04T14:02:50.785Z,3.33
2023-06-04T14:05:17.978Z,3.38
2023-06-04T14:07:45.218Z,3.47
2023-06-04T14:10:12.987Z,3.22
2023-06-04T14:12:41.648Z,3.72
2023-06-04T14:15:09.729Z,2.95
2023-06-04T14:17:37.118Z,3.60
2023-06-04T14:20:08.675Z,3.90
2023-06-04T14:22:37.393Z,3.50
2023-06-04T14:25:05.755Z,3.10
2023-06-04T14:27:33.360Z,3.50
2023-06-04T14:30:00.671Z,3.00
2023-06-04T14:32:27.643Z,3.25
2023-06-04T14:34:54.568Z,3.20
2023-06-04T14:37:22.011Z,3.55
2023-06-04T14:39:49.356Z,3.42
2023-06-04T14:42:16.973Z,3.10
2023-06-04T14:44:43.815Z,2.72
2023-06-04T14:47:11.866Z,2.88
2023-06-04T14:49:38.779Z,3.22
2023-06-04T14:52:06.245Z,2.90
2023-06-04T14:54:33.977Z,3.17
2023-06-04T14:57:01.177Z,3.33
2023-06-04T14:59:28.111Z,3.22
2023-06-04T15:01:55.920Z,3.03
2023-06-04T15:04:23.778Z,3.13
2023-06-04T15:06:51.093Z,3.97
2023-06-04T15:09:18.221Z,3.42
2023-06-04T15:11:46.079Z,3.42
2023-06-04T15:14:13.004Z,3.47
2023-06-04T15:16:39.959Z,3.00
2023-06-04T15:19:07.064Z,4.20
2023-06-04T15:21:34.020Z,3.85
2023-06-04T15:24:01.079Z,4.55
2023-06-04T15:26:28.314Z,4.00
2023-06-04T15:28:57.654Z,3.78
2023-06-04T15:31:24.781Z,4.13
2023-06-04T15:33:51.902Z,3.75
2023-06-04T15:36:18.781Z,3.28
2023-06-04T15:38:45.838Z,3.58
2023-06-04T15:41:12.765Z,3.50
2023-06-04T15:43:39.643Z,3.70
2023-06-04T15:46:06.627Z,3.67
2023-06-04T15:48:33.613Z,3.70
2023-06-04T15:51:00.877Z,3.47
2023-06-04T15:53:27.743Z,3.75
2023-06-04T15:55:54.662Z,3.80
2023-06-04T15:58:21.563Z,3.58
2023-06-04T16:00:48.370Z,3.33
2023-06-04T16:03:15.278Z,3.67
2023-06-04T16:05:42.299Z,3.13
2023-06-04T16:08:09.332Z,3.58
2023-06-04T16:10:36.312Z,3.33
2023-06-04T16:13:03.698Z,2.85
2023-06-04T16:15:30.633Z,3.20
2023-06-04T16:17:57.536Z,3.17
2023-06-04T16:20:24.522Z,3.55
2023-06-04T16:22:51.693Z,3.58
2023-06-04T16:25:19.190Z,3.30
2023-06-04T16:27:47.662Z,3.13
2023-06-04T16:30:15.590Z,3.05
2023-06-04T16:32:42.845Z,3.90
2023-06-04T16:35:10.967Z,3.63
2023-06-04T16:37:41.303Z,2.97
2023-06-04T16:40:09.038Z,3.65
2023-06-04T16:42:40.209Z,3.65
2023-06-04T16:45:07.552Z,3.70
2023-06-04T16:47:36.016Z,2.92
2023-06-04T16:50:03.164Z,3.20
2023-06-04T16:52:32.169Z,3.33
2023-06-04T16:55:00.347Z,3.55
2023-06-04T16:57:27.776Z,3.63
2023-06-04T16:59:54.742Z,3.50
2023-06-04T17:02:22.011Z,3.05
2023-06-04T17:04:50.949Z,3.70
2023-06-04T17:07:17.804Z,3.50
2023-06-04T17:09:46.497Z,3.45
2023-06-04T17:12:14.984Z,3.92
2023-06-04T17:14:41.848Z,4.60
2023-06-04T17:17:08.801Z,3.35
2023-06-04T17:19:37.503Z,3.30
2023-06-04T17:22:04.621Z,3.33
2023-06-04T17:24:31.758Z,3.40
2023-06-04T17:26:58.756Z,3.53
2023-06-04T17:29:25.792Z,3.88
2023-06-04T17:31:52.671Z,4.05
2023-06-04T17:34:19.735Z,3.53
2023-06-04T17:36:46.609Z,3.72
2023-06-04T17:39:13.505Z,3.65
2023-06-04T17:41:40.794Z,3.55
2023-06-04T17:44:07.644Z,4.10
2023-06-04T17:46:35.152Z,4.22
2023-06-04T17:49:04.397Z,3.35
2023-06-04T17:51:31.414Z,4.10
2023-06-04T17:53:58.314Z,3.55
2023-06-04T17:56:25.212Z,4.28
2023-06-04T17:58:52.202Z,3.70
2023-06-04T18:01:19.190Z,4.22
2023-06-04T18:03:51.034Z,4.07
2023-06-04T18:06:20.967Z,4.38
2023-06-04T18:08:48.013Z,3.72
2023-06-04T18:11:15.182Z,3.72
2023-06-04T18:13:42.207Z,4.28
2023-06-04T18:16:14.767Z,4.30
2023-06-04T18:18:43.564Z,4.65
2023-06-04T18:21:11.456Z,3.97
2023-06-04T18:23:39.023Z,4.05
2023-06-04T18:26:06.579Z,3.80
2023-06-04T18:28:33.614Z,4.32
2023-06-04T18:31:01.046Z,4.10
2023-06-04T18:33:28.372Z,3.80
2023-06-04T18:35:55.249Z,4.07
2023-06-04T18:38:22.248Z,4.25
2023-06-04T18:40:50.858Z,4.13
2023-06-04T18:43:17.924Z,3.95
2023-06-04T18:45:45.030Z,4.30
2023-06-04T18:48:12.038Z,3.70
2023-06-04T18:50:39.860Z,4.18
2023-06-04T18:53:06.878Z,4.05
2023-06-04T18:55:33.853Z,4.13
2023-06-04T18:58:00.874Z,3.90
2023-06-04T19:00:28.124Z,3.80
2023-06-04T19:02:56.020Z,4.28
2023-06-04T19:05:23.351Z,3.78
2023-06-04T19:07:50.176Z,3.60
2023-06-04T19:10:18.067Z,4.20
2023-06-04T19:12:44.918Z,4.15
2023-06-04T19:15:12.066Z,4.45
2023-06-04T19:17:38.990Z,4.78
2023-06-04T19:20:06.689Z,4.90
2023-06-04T19:22:33.673Z,4.50
2023-06-04T19:25:00.732Z,4.68
2023-06-04T19:27:27.748Z,4.63
2023-06-04T19:29:55.571Z,4.28
2023-06-04T19:32:22.842Z,4.75
2023-06-04T19:34:50.086Z,4.70
2023-06-04T19:37:17.551Z,4.72
2023-06-04T19:39:44.584Z,4.05
2023-06-04T19:42:11.505Z,4.93
2023-06-04T19:44:38.471Z,4.47
2023-06-04T19:47:06.306Z,4.85
2023-06-04T19:49:33.316Z,4.38
2023-06-04T19:52:00.243Z,4.82
2023-06-04T19:54:27.073Z,4.25
2023-06-04T19:56:53.924Z,4.60
2023-06-04T19:59:21.103Z,5.50
2023-06-04T20:01:48.215Z,4.60
2023-06-04T20:04:16.293Z,4.32
2023-06-04T20:06:44.813Z,4.78
2023-06-04T20:09:13.408Z,3.95
2023-06-04T20:11:40.257Z,5.10
2023-06-04T20:14:07.145Z,5.07
2023-06-04T20:16:34.069Z,4.53
2023-06-04T20:19:01.042Z,4.40
2023-06-04T20:21:33.925Z,4.57
2023-06-04T20:24:02.955Z,4.65
2023-06-04T20:26:30.047Z,4.82
2023-06-04T20:28:59.719Z,4.55
2023-06-04T20:31:27.869Z,4.47
2023-06-04T20:33:58.343Z,4.53
2023-06-04T20:36:26.083Z,5.18
2023-06-04T20:38:53.219Z,5.45
2023-06-04T20:41:22.416Z,4.80
2023-06-04T20:43:51.499Z,5.80
2023-06-04T20:46:18.532Z,4.32
2023-06-04T20:48:45.960Z,5.07
2023-06-04T20:51:14.763Z,4.75
2023-06-04T20:53:48.225Z,4.82
2023-06-04T20:56:15.688Z,4.90
2023-06-04T20:58:43.806Z,4.47
2023-06-04T21:01:10.863Z,4.95
2023-06-04T21:03:37.858Z,5.35
2023-06-04T21:06:04.836Z,4.70
2023-06-04T21:08:31.697Z,5.00
2023-06-04T21:10:59.027Z,4.88
2023-06-04T21:13:26.069Z,4.65
2023-06-04T21:15:53.044Z,5.05
2023-06-04T21:18:20.036Z,4.80
2023-06-04T21:20:46.926Z,4.80
2023-06-04T21:23:13.825Z,5.82
2023-06-04T21:25:40.730Z,4.78
2023-06-04T21:28:07.647Z,4.65
2023-06-04T21:30:34.566Z,4.82
2023-06-04T21:33:01.783Z,5.70
2023-06-04T21:35:28.775Z,6.38
2023-06-04T21:37:55.684Z,7.22
2023-06-04T21:40:22.616Z,7.70
2023-06-04T21:42:49.613Z,8.02
2023-06-04T21:45:18.316Z,8.38
2023-06-04T21:47:46.917Z,7.50
2023-06-04T21:50:13.811Z,7.90
2023-06-04T21:52:40.874Z,7.82
2023-06-04T21:55:08.267Z,7.10
2023-06-04T21:57:35.163Z,8.13
2023-06-04T22:00:02.457Z,8.27
2023-06-04T22:02:53.240Z,7.68
2023-06-04T22:05:20.943Z,7.40
2023-06-04T22:07:47.877Z,6.85
2023-06-04T22:10:17.230Z,6.85
2023-06-04T22:12:45.550Z,5.28
2023-06-04T22:15:12.686Z,4.50
2023-06-04T22:17:39.705Z,4.30
2023-06-04T22:20:08.560Z,4.28
2023-06-04T22:22:35.815Z,4.32
2023-06-04T22:25:02.706Z,3.70
2023-06-04T22:27:32.241Z,4.85
2023-06-04T22:29:59.245Z,4.50
2023-06-04T22:32:26.837Z,4.20
2023-06-04T22:34:53.969Z,5.47
2023-06-04T22:37:20.870Z,4.35
2023-06-04T22:39:48.042Z,4.88
2023-06-04T22:42:16.746Z,4.65
2023-06-04T22:44:43.695Z,5.05
2023-06-04T22:47:10.839Z,4.30
2023-06-04T22:49:38.921Z,4.80
2023-06-04T22:52:09.019Z,4.90
2023-06-04T22:54:36.081Z,5.03
2023-06-04T22:57:02.961Z,4.60
2023-06-04T22:59:29.938Z,4.72
2023-06-04T23:01:57.118Z,5.10
2023-06-04T23:04:24.275Z,5.55
2023-06-04T23:06:51.241Z,4.70
2023-06-04T23:09:18.155Z,5.00
2023-06-04T23:11:45.156Z,4.75
2023-06-04T23:14:12.549Z,5.28
2023-06-04T23:16:39.482Z,4.70
2023-06-04T23:19:07.559Z,4.90
2023-06-04T23:21:34.457Z,4.32
2023-06-04T23:24:01.426Z,4.40
2023-06-04T23:26:28.336Z,4.45
2023-06-04T23:28:55.218Z,5.18
2023-06-04T23:31:22.274Z,5.15
2023-06-04T23:33:49.212Z,4.72
2023-06-04T23:36:16.498Z,5.07
2023-06-04T23:38:43.354Z,5.13
2023-06-04T23:41:10.455Z,5.00
2023-06-04T23:43:37.551Z,4.60
2023-06-04T23:46:04.461Z,5.30
2023-06-04T23:48:31.334Z,4.40
2023-06-04T23:50:58.179Z,4.35
2023-06-04T23:53:25.352Z,4.40
2023-06-04T23:55:52.279Z,5.40
2023-06-04T23:58:20.460Z,4.78
